sensor_id;sensor_type;location;lat;lon;timestamp;P1;durP1;ratioP1;P2;durP2;ratioP2
37309;SDS011;23195;47.744;7.358;2023-03-25T08:57:55;1.70;;;0.90;;
37309;SDS011;23195;47.744;7.358;2023-03-25T09:00:21;2.27;;;1.10;;
37309;SDS011;23195;47.744;7.358;2023-03-25T09:02:49;1.73;;;0.80;;
37309;SDS011;23195;47.744;7.358;2023-03-25T09:05:15;4.97;;;0.80;;
37309;SDS011;23195;47.744;7.358;2023-03-25T09:07:53;1.27;;;0.50;;
37309;SDS011;23195;47.744;7.358;2023-03-25T09:10:19;3.73;;;0.77;;
37309;SDS011;23195;47.744;7.358;2023-03-25T09:12:45;2.10;;;0.90;;
37309;SDS011;23195;47.744;7.358;2023-03-25T09:15:11;2.87;;;0.50;;
37309;SDS011;23195;47.744;7.358;2023-03-25T09:17:37;1.77;;;0.50;;
37309;SDS011;23195;47.744;7.358;2023-03-25T09:20:05;1.43;;;0.60;;
37309;SDS011;23195;47.744;7.358;2023-03-25T09:22:35;2.73;;;0.63;;
37309;SDS011;23195;47.744;7.358;2023-03-25T09:25:01;2.00;;;0.67;;
37309;SDS011;23195;47.744;7.358;2023-03-25T09:27:27;1.83;;;0.80;;
37309;SDS011;23195;47.744;7.358;2023-03-25T09:29:53;2.20;;;0.70;;
37309;SDS011;23195;47.744;7.358;2023-03-25T09:32:19;1.47;;;0.90;;
37309;SDS011;23195;47.744;7.358;2023-03-25T09:34:47;0.70;;;0.70;;
37309;SDS011;23195;47.744;7.358;2023-03-25T09:37:22;1.90;;;0.90;;
37309;SDS011;23195;47.744;7.358;2023-03-25T09:39:57;1.27;;;0.77;;
37309;SDS011;23195;47.744;7.358;2023-03-25T09:50:55;1.20;;;0.60;;
37309;SDS011;23195;47.744;7.358;2023-03-25T09:53:29;0.87;;;0.50;;
37309;SDS011;23195;47.744;7.358;2023-03-25T09:56:16;3.70;;;1.07;;
37309;SDS011;23195;47.744;7.358;2023-03-25T09:58:46;1.57;;;0.90;;
37309;SDS011;23195;47.744;7.358;2023-03-25T10:06:31;3.00;;;1.10;;
37309;SDS011;23195;47.744;7.358;2023-03-25T10:09:14;2.87;;;1.13;;
37309;SDS011;23195;47.744;7.358;2023-03-25T10:12:03;3.17;;;1.50;;
37309;SDS011;23195;47.744;7.358;2023-03-25T10:23:30;1.63;;;0.60;;
37309;SDS011;23195;47.744;7.358;2023-03-25T10:26:14;3.03;;;0.80;;
37309;SDS011;23195;47.744;7.358;2023-03-25T10:28:56;1.80;;;0.70;;
37309;SDS011;23195;47.744;7.358;2023-03-25T10:31:28;2.00;;;0.73;;
37309;SDS011;23195;47.744;7.358;2023-03-25T10:33:59;1.60;;;0.70;;
37309;SDS011;23195;47.744;7.358;2023-03-25T10:36:36;2.93;;;0.60;;
37309;SDS011;23195;47.744;7.358;2023-03-25T10:39:13;3.43;;;1.00;;
37309;SDS011;23195;47.744;7.358;2023-03-25T10:41:43;2.17;;;0.70;;
37309;SDS011;23195;47.744;7.358;2023-03-25T10:44:23;2.73;;;0.70;;
37309;SDS011;23195;47.744;7.358;2023-03-25T10:47:01;1.63;;;0.63;;
37309;SDS011;23195;47.744;7.358;2023-03-25T10:49:30;4.03;;;1.00;;
37309;SDS011;23195;47.744;7.358;2023-03-25T10:51:56;5.43;;;0.80;;
37309;SDS011;23195;47.744;7.358;2023-03-25T10:54:43;4.27;;;1.00;;
37309;SDS011;23195;47.744;7.358;2023-03-25T10:57:15;2.50;;;0.73;;
37309;SDS011;23195;47.744;7.358;2023-03-25T11:02:21;3.07;;;0.90;;
37309;SDS011;23195;47.744;7.358;2023-03-25T11:04:56;2.47;;;0.80;;
37309;SDS011;23195;47.744;7.358;2023-03-25T11:07:28;4.53;;;0.80;;
37309;SDS011;23195;47.744;7.358;2023-03-25T11:12:40;3.70;;;1.00;;
37309;SDS011;23195;47.744;7.358;2023-03-25T11:15:15;3.83;;;0.90;;
37309;SDS011;23195;47.744;7.358;2023-03-25T11:18:03;4.23;;;1.00;;
37309;SDS011;23195;47.744;7.358;2023-03-25T11:20:36;1.50;;;0.80;;
37309;SDS011;23195;47.744;7.358;2023-03-25T11:23:05;1.60;;;0.70;;
37309;SDS011;23195;47.744;7.358;2023-03-25T11:25:52;4.90;;;0.90;;
37309;SDS011;23195;47.744;7.358;2023-03-25T11:28:38;6.50;;;1.20;;
37309;SDS011;23195;47.744;7.358;2023-03-25T11:41:49;4.33;;;0.90;;
37309;SDS011;23195;47.744;7.358;2023-03-25T11:44:23;4.47;;;0.93;;
37309;SDS011;23195;47.744;7.358;2023-03-25T11:46:55;3.23;;;0.97;;
37309;SDS011;23195;47.744;7.358;2023-03-25T11:49:24;6.27;;;1.00;;
37309;SDS011;23195;47.744;7.358;2023-03-25T11:51:55;2.10;;;0.70;;
37309;SDS011;23195;47.744;7.358;2023-03-25T11:54:25;1.30;;;0.70;;
37309;SDS011;23195;47.744;7.358;2023-03-25T11:56:52;3.37;;;0.80;;
37309;SDS011;23195;47.744;7.358;2023-03-25T11:59:22;2.30;;;0.90;;
37309;SDS011;23195;47.744;7.358;2023-03-25T12:02:00;2.50;;;0.73;;
37309;SDS011;23195;47.744;7.358;2023-03-25T12:04:59;3.13;;;0.60;;
37309;SDS011;23195;47.744;7.358;2023-03-25T12:07:43;2.63;;;0.70;;
37309;SDS011;23195;47.744;7.358;2023-03-25T12:10:15;2.63;;;0.80;;
37309;SDS011;23195;47.744;7.358;2023-03-25T12:13:16;1.80;;;0.70;;
37309;SDS011;23195;47.744;7.358;2023-03-25T12:16:03;1.63;;;0.63;;
37309;SDS011;23195;47.744;7.358;2023-03-25T12:27:31;2.67;;;1.00;;
37309;SDS011;23195;47.744;7.358;2023-03-25T12:30:20;5.30;;;0.80;;
37309;SDS011;23195;47.744;7.358;2023-03-25T12:36:02;1.40;;;0.80;;
37309;SDS011;23195;47.744;7.358;2023-03-25T12:50:34;3.03;;;0.63;;
37309;SDS011;23195;47.744;7.358;2023-03-25T12:56:31;2.40;;;0.83;;
37309;SDS011;23195;47.744;7.358;2023-03-25T13:07:26;2.63;;;0.77;;
37309;SDS011;23195;47.744;7.358;2023-03-25T13:12:36;2.53;;;0.77;;
37309;SDS011;23195;47.744;7.358;2023-03-25T13:23:29;1.80;;;0.67;;
37309;SDS011;23195;47.744;7.358;2023-03-25T13:26:08;0.73;;;0.50;;
37309;SDS011;23195;47.744;7.358;2023-03-25T13:28:38;3.00;;;0.70;;
37309;SDS011;23195;47.744;7.358;2023-03-25T13:31:21;1.50;;;0.60;;
37309;SDS011;23195;47.744;7.358;2023-03-25T13:34:04;2.47;;;0.70;;
37309;SDS011;23195;47.744;7.358;2023-03-25T13:37:35;2.10;;;0.80;;
37309;SDS011;23195;47.744;7.358;2023-03-25T13:45:16;2.13;;;0.87;;
37309;SDS011;23195;47.744;7.358;2023-03-25T13:50:30;3.17;;;0.93;;
37309;SDS011;23195;47.744;7.358;2023-03-25T13:53:04;2.60;;;1.00;;
37309;SDS011;23195;47.744;7.358;2023-03-25T13:55:42;3.10;;;1.20;;
37309;SDS011;23195;47.744;7.358;2023-03-25T14:12:30;6.50;;;1.17;;
37309;SDS011;23195;47.744;7.358;2023-03-25T14:15:05;5.60;;;1.23;;
37309;SDS011;23195;47.744;7.358;2023-03-25T14:17:37;6.03;;;1.50;;
37309;SDS011;23195;47.744;7.358;2023-03-25T14:20:05;4.53;;;1.27;;
37309;SDS011;23195;47.744;7.358;2023-03-25T14:22:37;4.43;;;1.10;;
37309;SDS011;23195;47.744;7.358;2023-03-25T14:25:11;3.03;;;1.00;;
37309;SDS011;23195;47.744;7.358;2023-03-25T14:27:48;5.07;;;1.00;;
37309;SDS011;23195;47.744;7.358;2023-03-25T14:30:19;4.70;;;1.30;;
37309;SDS011;23195;47.744;7.358;2023-03-25T14:32:54;4.50;;;0.87;;
37309;SDS011;23195;47.744;7.358;2023-03-25T14:43:23;3.17;;;0.80;;
37309;SDS011;23195;47.744;7.358;2023-03-25T14:48:49;4.33;;;1.40;;
37309;SDS011;23195;47.744;7.358;2023-03-25T14:56:21;3.30;;;1.20;;
37309;SDS011;23195;47.744;7.358;2023-03-25T14:58:57;3.23;;;1.07;;
37309;SDS011;23195;47.744;7.358;2023-03-25T15:01:32;4.77;;;1.00;;
37309;SDS011;23195;47.744;7.358;2023-03-25T15:06:53;3.20;;;0.90;;
37309;SDS011;23195;47.744;7.358;2023-03-25T15:09:19;3.10;;;1.10;;
37309;SDS011;23195;47.744;7.358;2023-03-25T15:11:55;6.07;;;1.10;;
37309;SDS011;23195;47.744;7.358;2023-03-25T15:14:25;5.70;;;0.83;;
37309;SDS011;23195;47.744;7.358;2023-03-25T15:16:56;3.43;;;0.90;;
37309;SDS011;23195;47.744;7.358;2023-03-25T15:19:28;2.00;;;0.43;;
37309;SDS011;23195;47.744;7.358;2023-03-25T15:22:18;2.23;;;0.70;;
37309;SDS011;23195;47.744;7.358;2023-03-25T15:24:54;2.90;;;0.63;;
37309;SDS011;23195;47.744;7.358;2023-03-25T15:27:44;1.03;;;0.50;;
37309;SDS011;23195;47.744;7.358;2023-03-25T15:42:21;3.47;;;0.80;;
37309;SDS011;23195;47.744;7.358;2023-03-25T15:53:23;3.03;;;0.83;;
37309;SDS011;23195;47.744;7.358;2023-03-25T15:58:50;1.80;;;0.60;;
37309;SDS011;23195;47.744;7.358;2023-03-25T16:01:32;4.00;;;1.10;;
37309;SDS011;23195;47.744;7.358;2023-03-25T16:04:16;3.33;;;1.00;;
37309;SDS011;23195;47.744;7.358;2023-03-25T16:06:49;3.77;;;0.70;;
37309;SDS011;23195;47.744;7.358;2023-03-25T16:09:19;4.70;;;0.90;;
37309;SDS011;23195;47.744;7.358;2023-03-25T16:11:48;2.77;;;1.00;;
37309;SDS011;23195;47.744;7.358;2023-03-25T16:14:15;3.30;;;1.00;;
37309;SDS011;23195;47.744;7.358;2023-03-25T16:16:53;5.00;;;1.10;;
37309;SDS011;23195;47.744;7.358;2023-03-25T16:19:21;3.57;;;1.10;;
37309;SDS011;23195;47.744;7.358;2023-03-25T16:22:24;2.53;;;1.03;;
37309;SDS011;23195;47.744;7.358;2023-03-25T16:25:00;2.57;;;1.47;;
37309;SDS011;23195;47.744;7.358;2023-03-25T16:27:35;5.57;;;1.50;;
37309;SDS011;23195;47.744;7.358;2023-03-25T16:33:15;5.00;;;1.17;;
37309;SDS011;23195;47.744;7.358;2023-03-25T16:35:45;4.30;;;1.53;;
37309;SDS011;23195;47.744;7.358;2023-03-25T16:38:20;3.87;;;1.10;;
37309;SDS011;23195;47.744;7.358;2023-03-25T16:40:50;4.13;;;1.60;;
37309;SDS011;23195;47.744;7.358;2023-03-25T16:43:23;2.20;;;1.17;;
37309;SDS011;23195;47.744;7.358;2023-03-25T16:45:51;3.03;;;1.30;;
37309;SDS011;23195;47.744;7.358;2023-03-25T16:48:21;3.70;;;1.23;;
37309;SDS011;23195;47.744;7.358;2023-03-25T16:50:53;7.37;;;1.07;;
37309;SDS011;23195;47.744;7.358;2023-03-25T16:53:23;13.90;;;1.90;;
37309;SDS011;23195;47.744;7.358;2023-03-25T16:58:54;4.03;;;1.07;;
37309;SDS011;23195;47.744;7.358;2023-03-25T17:01:25;3.97;;;0.90;;
37309;SDS011;23195;47.744;7.358;2023-03-25T17:03:54;3.13;;;1.00;;
37309;SDS011;23195;47.744;7.358;2023-03-25T17:06:36;4.87;;;1.20;;
37309;SDS011;23195;47.744;7.358;2023-03-25T17:09:18;3.80;;;1.00;;
37309;SDS011;23195;47.744;7.358;2023-03-25T17:11:46;3.63;;;0.80;;
37309;SDS011;23195;47.744;7.358;2023-03-25T17:14:21;2.03;;;1.10;;
37309;SDS011;23195;47.744;7.358;2023-03-25T17:16:55;5.20;;;1.47;;
37309;SDS011;23195;47.744;7.358;2023-03-25T17:19:27;5.73;;;1.40;;
37309;SDS011;23195;47.744;7.358;2023-03-25T17:22:12;3.60;;;1.17;;
37309;SDS011;23195;47.744;7.358;2023-03-25T17:27:39;2.43;;;0.80;;
37309;SDS011;23195;47.744;7.358;2023-03-25T17:30:19;3.27;;;0.80;;
37309;SDS011;23195;47.744;7.358;2023-03-25T17:33:10;3.47;;;1.07;;
37309;SDS011;23195;47.744;7.358;2023-03-25T17:35:42;2.87;;;1.00;;
37309;SDS011;23195;47.744;7.358;2023-03-25T17:38:20;3.80;;;0.93;;
37309;SDS011;23195;47.744;7.358;2023-03-25T17:40:59;2.23;;;0.87;;
37309;SDS011;23195;47.744;7.358;2023-03-25T17:43:30;3.13;;;1.10;;
37309;SDS011;23195;47.744;7.358;2023-03-25T17:45:58;4.77;;;1.00;;
37309;SDS011;23195;47.744;7.358;2023-03-25T17:48:25;5.10;;;1.60;;
37309;SDS011;23195;47.744;7.358;2023-03-25T17:50:56;4.90;;;1.40;;
37309;SDS011;23195;47.744;7.358;2023-03-25T17:53:23;4.53;;;1.50;;
37309;SDS011;23195;47.744;7.358;2023-03-25T17:55:50;3.87;;;1.20;;
37309;SDS011;23195;47.744;7.358;2023-03-25T17:58:17;6.03;;;1.47;;
37309;SDS011;23195;47.744;7.358;2023-03-25T18:00:44;5.60;;;1.80;;
37309;SDS011;23195;47.744;7.358;2023-03-25T18:03:12;4.47;;;2.17;;
37309;SDS011;23195;47.744;7.358;2023-03-25T18:05:40;3.63;;;1.87;;
37309;SDS011;23195;47.744;7.358;2023-03-25T18:08:08;4.13;;;1.50;;
37309;SDS011;23195;47.744;7.358;2023-03-25T18:10:40;7.00;;;1.70;;
37309;SDS011;23195;47.744;7.358;2023-03-25T18:13:06;5.70;;;2.20;;
37309;SDS011;23195;47.744;7.358;2023-03-25T18:15:33;12.50;;;2.83;;
37309;SDS011;23195;47.744;7.358;2023-03-25T18:17:59;5.90;;;1.90;;
37309;SDS011;23195;47.744;7.358;2023-03-25T18:20:26;6.40;;;1.90;;
37309;SDS011;23195;47.744;7.358;2023-03-25T18:22:57;5.27;;;2.40;;
37309;SDS011;23195;47.744;7.358;2023-03-25T18:25:23;5.70;;;2.20;;
37309;SDS011;23195;47.744;7.358;2023-03-25T18:27:50;4.07;;;1.63;;
37309;SDS011;23195;47.744;7.358;2023-03-25T18:30:27;3.80;;;1.60;;
37309;SDS011;23195;47.744;7.358;2023-03-25T18:32:55;5.60;;;2.30;;
37309;SDS011;23195;47.744;7.358;2023-03-25T18:35:21;5.60;;;1.80;;
37309;SDS011;23195;47.744;7.358;2023-03-25T18:37:47;10.57;;;2.13;;
37309;SDS011;23195;47.744;7.358;2023-03-25T18:40:27;4.83;;;2.00;;
37309;SDS011;23195;47.744;7.358;2023-03-25T18:42:55;4.40;;;1.50;;
37309;SDS011;23195;47.744;7.358;2023-03-25T18:45:22;5.00;;;1.93;;
37309;SDS011;23195;47.744;7.358;2023-03-25T18:47:49;5.23;;;1.67;;
37309;SDS011;23195;47.744;7.358;2023-03-25T18:50:22;3.40;;;1.27;;
37309;SDS011;23195;47.744;7.358;2023-03-25T18:52:51;2.87;;;1.50;;
37309;SDS011;23195;47.744;7.358;2023-03-25T18:55:20;5.13;;;2.30;;
37309;SDS011;23195;47.744;7.358;2023-03-25T18:57:47;7.03;;;2.50;;
37309;SDS011;23195;47.744;7.358;2023-03-25T19:00:17;7.03;;;2.50;;
37309;SDS011;23195;47.744;7.358;2023-03-25T19:02:53;7.33;;;2.70;;
37309;SDS011;23195;47.744;7.358;2023-03-25T19:05:29;7.50;;;2.30;;
37309;SDS011;23195;47.744;7.358;2023-03-25T19:07:55;4.10;;;2.10;;
37309;SDS011;23195;47.744;7.358;2023-03-25T19:13:19;3.73;;;1.70;;
37309;SDS011;23195;47.744;7.358;2023-03-25T19:15:45;5.83;;;2.23;;
37309;SDS011;23195;47.744;7.358;2023-03-25T19:18:16;3.73;;;1.63;;
37309;SDS011;23195;47.744;7.358;2023-03-25T19:20:50;4.27;;;2.07;;
37309;SDS011;23195;47.744;7.358;2023-03-25T19:23:18;5.73;;;2.27;;
37309;SDS011;23195;47.744;7.358;2023-03-25T19:25:45;6.00;;;1.67;;
37309;SDS011;23195;47.744;7.358;2023-03-25T19:28:27;5.43;;;1.83;;
37309;SDS011;23195;47.744;7.358;2023-03-25T19:33:55;7.10;;;2.40;;
37309;SDS011;23195;47.744;7.358;2023-03-25T19:36:20;6.90;;;2.50;;
37309;SDS011;23195;47.744;7.358;2023-03-25T19:38:47;6.70;;;1.90;;
37309;SDS011;23195;47.744;7.358;2023-03-25T19:41:13;5.73;;;1.77;;
37309;SDS011;23195;47.744;7.358;2023-03-25T19:43:40;4.20;;;1.70;;
37309;SDS011;23195;47.744;7.358;2023-03-25T19:46:09;6.13;;;2.23;;
37309;SDS011;23195;47.744;7.358;2023-03-25T19:48:42;6.93;;;2.10;;
37309;SDS011;23195;47.744;7.358;2023-03-25T19:51:08;7.87;;;2.47;;
37309;SDS011;23195;47.744;7.358;2023-03-25T19:53:37;7.03;;;2.27;;
37309;SDS011;23195;47.744;7.358;2023-03-25T19:56:06;6.67;;;2.40;;
37309;SDS011;23195;47.744;7.358;2023-03-25T19:58:37;4.90;;;2.20;;
37309;SDS011;23195;47.744;7.358;2023-03-25T20:01:06;6.97;;;2.37;;
37309;SDS011;23195;47.744;7.358;2023-03-25T20:03:32;7.60;;;2.13;;
37309;SDS011;23195;47.744;7.358;2023-03-25T20:06:02;7.60;;;1.80;;
37309;SDS011;23195;47.744;7.358;2023-03-25T20:08:52;6.17;;;2.20;;
37309;SDS011;23195;47.744;7.358;2023-03-25T20:11:18;7.40;;;2.23;;
37309;SDS011;23195;47.744;7.358;2023-03-25T20:13:47;6.50;;;2.57;;
37309;SDS011;23195;47.744;7.358;2023-03-25T20:16:14;6.70;;;2.20;;
37309;SDS011;23195;47.744;7.358;2023-03-25T20:18:40;6.37;;;2.23;;
37309;SDS011;23195;47.744;7.358;2023-03-25T20:21:07;9.13;;;2.70;;
37309;SDS011;23195;47.744;7.358;2023-03-25T20:23:33;5.77;;;2.37;;
37309;SDS011;23195;47.744;7.358;2023-03-25T20:25:59;8.43;;;3.10;;
37309;SDS011;23195;47.744;7.358;2023-03-25T20:28:30;5.30;;;2.50;;
37309;SDS011;23195;47.744;7.358;2023-03-25T20:30:56;8.20;;;2.53;;
37309;SDS011;23195;47.744;7.358;2023-03-25T20:33:23;6.63;;;2.30;;
37309;SDS011;23195;47.744;7.358;2023-03-25T20:35:51;6.33;;;2.23;;
37309;SDS011;23195;47.744;7.358;2023-03-25T20:38:17;6.97;;;3.17;;
37309;SDS011;23195;47.744;7.358;2023-03-25T20:40:45;8.27;;;2.50;;
37309;SDS011;23195;47.744;7.358;2023-03-25T20:43:11;5.63;;;1.70;;
37309;SDS011;23195;47.744;7.358;2023-03-25T20:45:38;5.33;;;1.60;;
37309;SDS011;23195;47.744;7.358;2023-03-25T20:48:04;5.67;;;1.67;;
37309;SDS011;23195;47.744;7.358;2023-03-25T20:50:31;5.63;;;1.80;;
37309;SDS011;23195;47.744;7.358;2023-03-25T20:53:00;9.97;;;2.00;;
37309;SDS011;23195;47.744;7.358;2023-03-25T20:55:26;5.53;;;2.10;;
37309;SDS011;23195;47.744;7.358;2023-03-25T20:57:52;9.77;;;3.27;;
37309;SDS011;23195;47.744;7.358;2023-03-25T21:00:18;7.13;;;3.10;;
37309;SDS011;23195;47.744;7.358;2023-03-25T21:02:44;7.67;;;2.80;;
37309;SDS011;23195;47.744;7.358;2023-03-25T21:05:11;9.77;;;2.40;;
37309;SDS011;23195;47.744;7.358;2023-03-25T21:07:40;7.77;;;3.07;;
37309;SDS011;23195;47.744;7.358;2023-03-25T21:10:06;7.63;;;2.70;;
37309;SDS011;23195;47.744;7.358;2023-03-25T21:12:33;8.90;;;2.63;;
37309;SDS011;23195;47.744;7.358;2023-03-25T21:15:01;7.50;;;2.20;;
37309;SDS011;23195;47.744;7.358;2023-03-25T21:17:28;11.87;;;2.83;;
37309;SDS011;23195;47.744;7.358;2023-03-25T21:20:00;8.13;;;2.60;;
37309;SDS011;23195;47.744;7.358;2023-03-25T21:22:29;8.60;;;2.20;;
37309;SDS011;23195;47.744;7.358;2023-03-25T21:24:55;10.07;;;2.50;;
37309;SDS011;23195;47.744;7.358;2023-03-25T21:27:21;6.07;;;2.07;;
37309;SDS011;23195;47.744;7.358;2023-03-25T21:29:46;7.07;;;2.07;;
37309;SDS011;23195;47.744;7.358;2023-03-25T21:32:12;6.23;;;2.43;;
37309;SDS011;23195;47.744;7.358;2023-03-25T21:34:38;7.90;;;2.00;;
37309;SDS011;23195;47.744;7.358;2023-03-25T21:37:04;8.50;;;2.50;;
37309;SDS011;23195;47.744;7.358;2023-03-25T21:39:30;10.93;;;2.57;;
37309;SDS011;23195;47.744;7.358;2023-03-25T21:41:56;8.00;;;2.10;;
37309;SDS011;23195;47.744;7.358;2023-03-25T21:44:33;5.87;;;2.33;;
37309;SDS011;23195;47.744;7.358;2023-03-25T21:46:59;8.13;;;2.10;;
37309;SDS011;23195;47.744;7.358;2023-03-25T21:49:32;8.23;;;2.40;;
37309;SDS011;23195;47.744;7.358;2023-03-25T21:51:58;6.33;;;2.37;;
37309;SDS011;23195;47.744;7.358;2023-03-25T21:54:25;10.80;;;2.47;;
37309;SDS011;23195;47.744;7.358;2023-03-25T21:56:52;10.40;;;2.43;;
37309;SDS011;23195;47.744;7.358;2023-03-25T21:59:20;6.07;;;2.30;;
37309;SDS011;23195;47.744;7.358;2023-03-25T22:01:46;7.93;;;2.80;;
37309;SDS011;23195;47.744;7.358;2023-03-25T22:04:12;8.33;;;2.33;;
37309;SDS011;23195;47.744;7.358;2023-03-25T22:06:38;8.40;;;2.20;;
37309;SDS011;23195;47.744;7.358;2023-03-25T22:09:04;7.87;;;2.07;;
37309;SDS011;23195;47.744;7.358;2023-03-25T22:11:33;7.73;;;2.20;;
37309;SDS011;23195;47.744;7.358;2023-03-25T22:14:01;5.67;;;1.90;;
37309;SDS011;23195;47.744;7.358;2023-03-25T22:16:29;6.50;;;2.30;;
37309;SDS011;23195;47.744;7.358;2023-03-25T22:18:55;11.03;;;2.17;;
37309;SDS011;23195;47.744;7.358;2023-03-25T22:21:26;8.37;;;2.27;;
37309;SDS011;23195;47.744;7.358;2023-03-25T22:24:01;10.67;;;2.30;;
37309;SDS011;23195;47.744;7.358;2023-03-25T22:26:28;7.13;;;2.00;;
37309;SDS011;23195;47.744;7.358;2023-03-25T22:28:56;9.57;;;2.47;;
37309;SDS011;23195;47.744;7.358;2023-03-25T22:31:25;9.17;;;2.50;;
37309;SDS011;23195;47.744;7.358;2023-03-25T22:33:55;7.07;;;2.37;;
37309;SDS011;23195;47.744;7.358;2023-03-25T22:36:27;6.17;;;2.40;;
37309;SDS011;23195;47.744;7.358;2023-03-25T22:38:57;6.93;;;2.40;;
37309;SDS011;23195;47.744;7.358;2023-03-25T22:41:24;10.37;;;3.40;;
37309;SDS011;23195;47.744;7.358;2023-03-25T22:43:50;9.90;;;2.40;;
37309;SDS011;23195;47.744;7.358;2023-03-25T22:46:16;8.17;;;2.13;;
37309;SDS011;23195;47.744;7.358;2023-03-25T22:48:42;6.10;;;2.50;;
37309;SDS011;23195;47.744;7.358;2023-03-25T22:51:10;5.53;;;2.37;;
37309;SDS011;23195;47.744;7.358;2023-03-25T22:53:37;8.47;;;2.80;;
37309;SDS011;23195;47.744;7.358;2023-03-25T22:56:03;10.60;;;2.80;;
37309;SDS011;23195;47.744;7.358;2023-03-25T22:58:30;11.30;;;3.10;;
37309;SDS011;23195;47.744;7.358;2023-03-25T23:00:57;10.90;;;2.87;;
37309;SDS011;23195;47.744;7.358;2023-03-25T23:03:25;12.77;;;3.00;;
37309;SDS011;23195;47.744;7.358;2023-03-25T23:08:29;8.03;;;2.50;;
37309;SDS011;23195;47.744;7.358;2023-03-25T23:11:01;8.10;;;2.60;;
37309;SDS011;23195;47.744;7.358;2023-03-25T23:13:55;8.87;;;2.80;;
37309;SDS011;23195;47.744;7.358;2023-03-25T23:16:24;8.43;;;2.70;;
37309;SDS011;23195;47.744;7.358;2023-03-25T23:18:52;9.90;;;2.80;;
37309;SDS011;23195;47.744;7.358;2023-03-25T23:21:22;8.97;;;2.40;;
37309;SDS011;23195;47.744;7.358;2023-03-25T23:23:53;6.93;;;2.00;;
37309;SDS011;23195;47.744;7.358;2023-03-25T23:26:21;8.53;;;2.10;;
37309;SDS011;23195;47.744;7.358;2023-03-25T23:28:50;7.33;;;2.10;;
37309;SDS011;23195;47.744;7.358;2023-03-25T23:31:24;6.67;;;2.20;;
37309;SDS011;23195;47.744;7.358;2023-03-25T23:33:54;8.87;;;2.27;;
37309;SDS011;23195;47.744;7.358;2023-03-25T23:36:22;10.43;;;1.87;;
37309;SDS011;23195;47.744;7.358;2023-03-25T23:38:49;8.70;;;2.07;;
37309;SDS011;23195;47.744;7.358;2023-03-25T23:41:16;6.93;;;2.30;;
37309;SDS011;23195;47.744;7.358;2023-03-25T23:43:46;7.50;;;1.70;;
37309;SDS011;23195;47.744;7.358;2023-03-25T23:46:12;8.13;;;1.93;;
37309;SDS011;23195;47.744;7.358;2023-03-25T23:48:42;5.70;;;1.70;;
37309;SDS011;23195;47.744;7.358;2023-03-25T23:51:09;10.17;;;2.00;;
37309;SDS011;23195;47.744;7.358;2023-03-25T23:53:37;7.70;;;2.00;;
37309;SDS011;23195;47.744;7.358;2023-03-25T23:56:08;8.70;;;2.40;;
37309;SDS011;23195;47.744;7.358;2023-03-25T23:58:34;7.97;;;1.80;;
